aviador You're here:

KCDI Decoded Metar

in
Report Time2017-03-28 06:04:00
UTC Time2017-03-28 06:11:34
Flight Rules vfr VFR
Wind200° at 09 Gusting to 15 kt
W.Decomp.*RWY 22: 8.5 kt HW 3.1 kt LCW
Visibility9999 m
Phenomena:N/A
Clouds:Overcast 080 Hf
Expected CloudBase > 2,000 ft AGL from Temp-Dew spread
Ceiling8,000 ft
Temp16°C
Dew Point11°C (72% RH)
AAT13.1°C
QNH1011 hPa
Raw Report
KCDI 280604Z AUTO 20009G15KT 10SM OVC080 16/11 A2985 RMK AO2
T01560112=

Extra information for KCDI:More info

Social comments